createdAt,value
2018-08-20T00:01:44.157Z,51.30
2018-08-20T00:04:11.919Z,51.14
2018-08-20T00:06:46.546Z,52.17
2018-08-20T00:09:14.294Z,52.02
2018-08-20T00:11:41.948Z,51.35
2018-08-20T00:14:09.589Z,51.04
2018-08-20T00:16:37.247Z,52.09
2018-08-20T00:19:04.933Z,51.07
2018-08-20T00:21:32.624Z,51.98
2018-08-20T00:24:00.326Z,51.95
2018-08-20T00:26:28.247Z,51.32
2018-08-20T00:28:55.924Z,51.30
2018-08-20T00:31:23.645Z,51.88
2018-08-20T00:33:51.328Z,51.27
2018-08-20T00:36:19.005Z,51.45
2018-08-20T00:38:46.737Z,51.99
2018-08-20T00:41:14.414Z,51.28
2018-08-20T00:43:42.110Z,52.15
2018-08-20T00:46:09.780Z,51.97
2018-08-20T00:48:37.517Z,51.70
2018-08-20T00:51:05.191Z,52.05
2018-08-20T00:53:32.942Z,51.97
2018-08-20T00:56:00.600Z,52.08
2018-08-20T00:58:28.363Z,51.35
2018-08-20T01:00:56.098Z,51.41
2018-08-20T01:03:23.736Z,51.06
2018-08-20T01:05:51.569Z,51.20
2018-08-20T01:08:19.311Z,51.68
2018-08-20T01:10:46.978Z,52.00
2018-08-20T01:13:14.656Z,51.14
2018-08-20T01:15:42.373Z,51.94
2018-08-20T01:18:10.074Z,51.59
2018-08-20T01:20:37.741Z,51.94
2018-08-20T01:23:05.421Z,51.95
2018-08-20T01:25:33.065Z,51.61
2018-08-20T01:28:00.725Z,51.68
2018-08-20T01:30:28.376Z,51.27
2018-08-20T01:32:56.486Z,51.24
2018-08-20T01:35:25.914Z,52.02
2018-08-20T01:37:53.656Z,51.15
2018-08-20T01:40:21.311Z,51.43
2018-08-20T01:42:48.993Z,51.67
2018-08-20T01:45:16.643Z,51.84
2018-08-20T01:47:44.381Z,51.46
2018-08-20T01:50:12.036Z,51.14
2018-08-20T01:52:39.706Z,51.04
2018-08-20T01:55:07.365Z,51.97
2018-08-20T01:57:35.053Z,51.63
2018-08-20T02:00:02.741Z,51.81
2018-08-20T02:02:30.547Z,51.44
2018-08-20T02:04:58.202Z,51.11
2018-08-20T02:07:25.858Z,51.74
2018-08-20T02:09:53.522Z,51.17
2018-08-20T02:12:21.257Z,51.83
2018-08-20T02:14:48.948Z,51.27
2018-08-20T02:17:16.652Z,51.19
2018-08-20T02:19:44.340Z,52.05
2018-08-20T02:22:12.026Z,52.13
2018-08-20T02:24:39.695Z,51.32
2018-08-20T02:27:07.376Z,52.06
2018-08-20T02:29:35.018Z,51.19
2018-08-20T02:32:02.678Z,52.09
2018-08-20T02:34:30.311Z,51.39
2018-08-20T02:36:58.004Z,51.62
2018-08-20T02:39:25.753Z,51.30
2018-08-20T02:41:53.507Z,51.60
2018-08-20T02:44:21.185Z,51.71
2018-08-20T02:46:49.796Z,52.11
2018-08-20T02:49:18.105Z,51.31
2018-08-20T02:51:46.649Z,52.27
2018-08-20T02:54:14.325Z,52.02
2018-08-20T02:56:42.408Z,51.96
2018-08-20T02:59:10.112Z,52.03
2018-08-20T03:01:37.931Z,51.91
2018-08-20T03:04:05.938Z,51.64
2018-08-20T03:06:33.690Z,51.86
2018-08-20T03:09:01.377Z,51.18
2018-08-20T03:11:29.141Z,51.79
2018-08-20T03:13:56.792Z,51.73
2018-08-20T03:16:24.484Z,51.32
2018-08-20T03:18:52.146Z,51.69
2018-08-20T03:21:19.866Z,51.29
2018-08-20T03:23:47.613Z,51.26
2018-08-20T03:26:15.401Z,51.96
2018-08-20T03:28:43.181Z,51.27
2018-08-20T03:31:10.928Z,51.85
2018-08-20T03:33:38.836Z,52.42
2018-08-20T03:36:06.546Z,54.76
2018-08-20T03:38:34.240Z,52.94
2018-08-20T03:41:01.918Z,53.64
2018-08-20T03:43:29.712Z,52.95
2018-08-20T03:45:57.419Z,52.56
2018-08-20T03:48:25.342Z,52.75
2018-08-20T03:50:52.980Z,52.60
2018-08-20T03:53:20.737Z,52.54
2018-08-20T03:55:48.372Z,52.04
2018-08-20T03:58:16.170Z,52.18
2018-08-20T04:00:43.899Z,51.44
2018-08-20T04:03:11.589Z,53.30
2018-08-20T04:05:39.485Z,53.72
2018-08-20T04:08:07.154Z,54.40
2018-08-20T04:10:34.956Z,53.27
2018-08-20T04:13:02.697Z,51.61
2018-08-20T04:15:30.373Z,49.96
2018-08-20T04:17:58.041Z,48.78
2018-08-20T04:20:25.745Z,47.66
2018-08-20T04:22:53.422Z,47.54
2018-08-20T04:25:21.128Z,47.33
2018-08-20T04:27:48.768Z,48.08
2018-08-20T04:30:16.487Z,47.58
2018-08-20T04:32:44.215Z,47.69
2018-08-20T04:35:11.934Z,47.25
2018-08-20T04:37:39.588Z,48.06
2018-08-20T04:40:07.693Z,48.18
2018-08-20T04:42:35.402Z,48.18
2018-08-20T04:45:03.184Z,48.29
2018-08-20T04:47:30.872Z,47.47
2018-08-20T04:49:58.562Z,48.18
2018-08-20T04:52:26.353Z,47.58
2018-08-20T04:54:54.076Z,48.32
2018-08-20T04:57:21.747Z,48.42
2018-08-20T04:59:49.464Z,48.16
2018-08-20T05:02:17.153Z,48.14
2018-08-20T05:04:44.848Z,47.59
2018-08-20T05:07:12.553Z,47.55
2018-08-20T05:09:40.339Z,48.28
2018-08-20T05:12:07.988Z,47.64
2018-08-20T05:14:35.703Z,48.39
2018-08-20T05:17:03.418Z,48.40
2018-08-20T05:19:31.096Z,47.62
2018-08-20T05:21:58.781Z,48.53
2018-08-20T05:24:26.454Z,52.14
2018-08-20T05:26:54.177Z,57.85
2018-08-20T05:29:21.907Z,59.32
2018-08-20T05:34:23.569Z,58.77
2018-08-20T05:36:51.329Z,59.31
2018-08-20T05:39:19.033Z,58.40
2018-08-20T05:41:46.714Z,58.83
2018-08-20T05:44:14.502Z,60.37
2018-08-20T05:46:42.159Z,60.91
2018-08-20T05:49:10.012Z,57.16
2018-08-20T05:51:37.709Z,58.70
2018-08-20T05:54:05.647Z,58.83
2018-08-20T05:56:33.373Z,58.84
2018-08-20T05:59:01.037Z,58.78
2018-08-20T06:01:29.248Z,58.58
2018-08-20T06:03:56.976Z,58.20
2018-08-20T06:06:24.673Z,59.53
2018-08-20T06:08:52.381Z,59.22
2018-08-20T06:11:20.164Z,57.85
2018-08-20T06:13:47.893Z,57.16
2018-08-20T06:16:15.705Z,58.64
2018-08-20T06:18:43.341Z,58.80
2018-08-20T06:21:11.117Z,58.67
2018-08-20T06:23:38.932Z,59.42
2018-08-20T06:26:06.641Z,58.54
2018-08-20T06:28:34.368Z,56.44
2018-08-20T06:31:02.106Z,57.37
2018-08-20T06:33:30.073Z,57.91
2018-08-20T06:35:57.853Z,58.80
2018-08-20T06:38:25.580Z,58.39
2018-08-20T06:40:53.202Z,58.08
2018-08-20T06:43:20.822Z,57.46
2018-08-20T06:45:48.450Z,57.04
2018-08-20T06:48:16.097Z,58.26
2018-08-20T06:50:43.726Z,59.52
2018-08-20T06:53:11.341Z,58.59
2018-08-20T06:55:38.987Z,58.60
2018-08-20T06:58:06.644Z,57.46
2018-08-20T07:00:34.272Z,58.00
2018-08-20T07:03:01.899Z,55.68
2018-08-20T07:05:29.529Z,55.45
2018-08-20T07:07:57.140Z,54.23
2018-08-20T07:10:24.862Z,54.85
2018-08-20T07:12:52.490Z,55.53
2018-08-20T07:15:20.135Z,56.26
2018-08-20T07:17:47.752Z,53.12
2018-08-20T07:20:16.254Z,51.82
2018-08-20T07:22:44.208Z,50.36
2018-08-20T07:25:11.799Z,50.63
2018-08-20T07:27:39.439Z,50.44
2018-08-20T07:30:08.954Z,49.59
2018-08-20T07:32:36.604Z,50.19
2018-08-20T07:35:04.589Z,49.35
2018-08-20T07:37:32.234Z,49.28
2018-08-20T07:39:59.874Z,49.33
2018-08-20T07:42:27.519Z,50.00
2018-08-20T07:44:55.132Z,49.77
2018-08-20T07:47:22.767Z,49.19
2018-08-20T07:49:50.393Z,49.82
2018-08-20T07:52:18.118Z,49.31
2018-08-20T07:54:45.759Z,49.21
2018-08-20T07:57:13.622Z,49.14
2018-08-20T07:59:41.269Z,49.92
2018-08-20T08:02:09.227Z,49.20
2018-08-20T08:04:36.821Z,50.01
2018-08-20T08:07:04.514Z,49.94
2018-08-20T08:09:32.141Z,49.22
2018-08-20T08:11:59.819Z,50.00
2018-08-20T08:14:27.436Z,49.22
2018-08-20T08:16:55.178Z,49.86
2018-08-20T08:19:22.817Z,49.91
2018-08-20T08:21:50.434Z,49.20
2018-08-20T08:24:18.058Z,50.00
2018-08-20T08:26:45.685Z,49.93
2018-08-20T08:29:13.335Z,49.14
2018-08-20T08:31:40.974Z,49.15
2018-08-20T08:34:08.596Z,49.93
2018-08-20T08:36:36.242Z,49.32
2018-08-20T08:39:04.809Z,49.14
2018-08-20T08:41:32.438Z,49.67
2018-08-20T08:44:00.095Z,49.95
2018-08-20T08:46:27.736Z,49.88
2018-08-20T08:48:55.369Z,49.27
2018-08-20T08:51:23.046Z,49.94
2018-08-20T08:53:50.699Z,49.87
2018-08-20T08:56:18.322Z,49.92
2018-08-20T08:58:45.944Z,49.97
2018-08-20T09:01:13.625Z,49.17
2018-08-20T09:03:41.349Z,49.85
2018-08-20T09:06:08.986Z,49.68
2018-08-20T09:08:36.625Z,49.91
2018-08-20T09:11:04.258Z,49.06
2018-08-20T09:13:31.888Z,49.05
2018-08-20T09:15:59.513Z,49.12
2018-08-20T09:18:27.133Z,49.04
2018-08-20T09:20:54.782Z,49.13
2018-08-20T09:23:22.404Z,49.19
2018-08-20T09:25:50.031Z,49.01
2018-08-20T09:28:17.962Z,49.77
2018-08-20T09:30:45.613Z,49.04
2018-08-20T09:33:13.278Z,49.14
2018-08-20T09:35:40.911Z,49.77
2018-08-20T09:38:15.061Z,49.78
2018-08-20T09:40:42.703Z,49.46
2018-08-20T09:43:10.318Z,49.58
2018-08-20T09:45:37.946Z,49.42
2018-08-20T09:48:05.589Z,49.10
2018-08-20T09:50:33.213Z,49.01
2018-08-20T09:53:00.942Z,49.04
2018-08-20T09:55:28.609Z,49.80
2018-08-20T09:57:56.253Z,49.79
2018-08-20T10:00:29.309Z,49.48
2018-08-20T10:02:56.961Z,49.90
2018-08-20T10:05:24.581Z,49.24
2018-08-20T10:07:52.225Z,49.40
2018-08-20T10:10:19.846Z,49.06
2018-08-20T10:12:47.531Z,49.92
2018-08-20T10:15:15.238Z,49.69
2018-08-20T10:17:43.689Z,49.79
2018-08-20T10:20:12.784Z,49.21
2018-08-20T10:22:40.468Z,49.56
2018-08-20T10:25:08.237Z,48.92
2018-08-20T10:27:36.061Z,49.56
2018-08-20T10:30:03.762Z,49.18
2018-08-20T10:32:32.008Z,48.88
2018-08-20T10:35:00.042Z,48.85
2018-08-20T10:37:27.695Z,49.74
2018-08-20T10:39:55.358Z,48.78
2018-08-20T10:42:22.980Z,48.84
2018-08-20T10:44:54.618Z,49.68
2018-08-20T10:47:22.549Z,49.63
2018-08-20T10:49:50.178Z,49.71
2018-08-20T10:52:17.835Z,48.90
2018-08-20T10:54:45.467Z,49.73
2018-08-20T10:57:13.166Z,49.81
2018-08-20T10:59:40.804Z,49.73
2018-08-20T11:02:09.498Z,49.38
2018-08-20T11:04:37.038Z,49.22
2018-08-20T11:07:04.661Z,49.83
2018-08-20T11:09:32.333Z,49.78
2018-08-20T11:12:00.259Z,49.40
2018-08-20T11:14:27.879Z,48.88
2018-08-20T11:16:55.501Z,49.13
2018-08-20T11:19:23.135Z,49.35
2018-08-20T11:21:50.833Z,48.65
2018-08-20T11:24:18.457Z,49.65
2018-08-20T11:26:46.077Z,48.77
2018-08-20T11:29:13.738Z,48.69
2018-08-20T11:31:41.358Z,48.91
2018-08-20T11:34:09.193Z,49.32
2018-08-20T11:36:37.417Z,49.37
2018-08-20T11:39:05.930Z,49.50
2018-08-20T11:41:33.727Z,49.28
2018-08-20T11:44:01.486Z,49.89
2018-08-20T11:46:29.438Z,48.95
2018-08-20T11:48:57.226Z,49.84
2018-08-20T11:51:24.916Z,49.80
2018-08-20T11:53:52.655Z,49.00
2018-08-20T11:56:20.421Z,49.37
2018-08-20T11:58:48.140Z,49.46
2018-08-20T12:01:15.958Z,49.54
2018-08-20T12:03:43.813Z,49.81
2018-08-20T12:06:11.521Z,49.12
2018-08-20T12:08:39.356Z,49.04
2018-08-20T12:11:07.032Z,49.84
2018-08-20T12:13:34.843Z,49.59
2018-08-20T12:16:02.493Z,49.26
2018-08-20T12:18:30.160Z,48.99
2018-08-20T12:20:57.790Z,49.22
2018-08-20T12:23:25.423Z,48.83
2018-08-20T12:25:53.112Z,49.54
2018-08-20T12:28:20.776Z,48.67
2018-08-20T12:30:48.437Z,49.65
2018-08-20T12:33:16.075Z,49.59
2018-08-20T12:35:44.270Z,49.14
2018-08-20T12:38:12.067Z,48.81
2018-08-20T12:40:39.837Z,49.08
2018-08-20T12:43:07.462Z,48.85
2018-08-20T12:45:35.123Z,48.80
2018-08-20T12:48:02.741Z,49.15
2018-08-20T12:50:30.374Z,48.70
2018-08-20T12:52:58.206Z,49.62
2018-08-20T12:55:26.324Z,48.79
2018-08-20T12:57:54.105Z,48.73
2018-08-20T13:00:22.225Z,49.74
2018-08-20T13:02:49.985Z,48.76
2018-08-20T13:05:17.697Z,49.06
2018-08-20T13:07:45.395Z,48.81
2018-08-20T13:10:13.081Z,48.66
2018-08-20T13:12:40.828Z,49.42
2018-08-20T13:15:08.596Z,49.31
2018-08-20T13:17:36.537Z,49.56
2018-08-20T13:20:04.605Z,49.47
2018-08-20T13:22:32.410Z,48.89
2018-08-20T13:25:00.127Z,49.64
2018-08-20T13:27:27.856Z,49.38
2018-08-20T13:29:55.693Z,49.29
2018-08-20T13:32:23.837Z,48.79
2018-08-20T13:34:51.610Z,49.27
2018-08-20T13:37:19.349Z,48.45
2018-08-20T13:39:47.141Z,48.71
2018-08-20T13:42:14.879Z,48.73
2018-08-20T13:44:42.637Z,49.57
2018-08-20T13:47:10.432Z,49.42
2018-08-20T13:49:38.048Z,49.29
2018-08-20T13:52:05.809Z,49.67
2018-08-20T13:54:33.564Z,49.05
2018-08-20T13:57:01.244Z,48.78
2018-08-20T13:59:28.974Z,49.44
2018-08-20T14:01:56.681Z,49.38
2018-08-20T14:04:24.425Z,48.78
2018-08-20T14:06:53.171Z,49.45
2018-08-20T14:09:21.019Z,49.52
2018-08-20T14:11:48.741Z,49.57
2018-08-20T14:14:16.412Z,49.71
2018-08-20T14:16:44.156Z,48.93
2018-08-20T14:19:11.857Z,49.53
2018-08-20T14:21:39.677Z,48.71
2018-08-20T14:24:07.420Z,49.59
2018-08-20T14:26:35.136Z,49.59
2018-08-20T14:29:02.992Z,48.87
2018-08-20T14:31:30.698Z,49.44
2018-08-20T14:33:58.437Z,49.49
2018-08-20T14:36:26.172Z,49.63
2018-08-20T14:38:53.846Z,49.66
2018-08-20T14:41:21.470Z,49.71
2018-08-20T14:43:49.102Z,49.17
2018-08-20T14:46:21.294Z,49.56
2018-08-20T14:48:49.148Z,49.48
2018-08-20T14:51:17.053Z,48.83
2018-08-20T14:53:44.682Z,49.47
2018-08-20T14:56:12.313Z,48.73
2018-08-20T14:58:39.952Z,48.78
2018-08-20T15:01:07.635Z,49.61
2018-08-20T15:03:35.336Z,49.62
2018-08-20T15:06:02.977Z,49.71
2018-08-20T15:08:30.609Z,48.56
2018-08-20T15:10:58.249Z,49.44
2018-08-20T15:13:25.865Z,49.21
2018-08-20T15:15:53.498Z,48.63
2018-08-20T15:18:21.142Z,49.46
2018-08-20T15:20:48.803Z,48.73
2018-08-20T15:23:16.434Z,48.79
2018-08-20T15:25:44.088Z,48.73
2018-08-20T15:28:11.722Z,48.91
2018-08-20T15:30:39.376Z,49.60
2018-08-20T15:33:07.003Z,49.47
2018-08-20T15:35:34.617Z,49.34
2018-08-20T15:38:02.232Z,49.46
2018-08-20T15:40:29.870Z,48.80
2018-08-20T15:42:57.510Z,49.39
2018-08-20T15:45:25.137Z,49.50
2018-08-20T15:47:52.751Z,49.51
2018-08-20T15:50:20.381Z,49.50
2018-08-20T15:52:47.997Z,49.52
2018-08-20T15:55:15.621Z,48.74
2018-08-20T15:57:43.256Z,48.84
2018-08-20T16:00:13.745Z,48.42
2018-08-20T16:02:41.382Z,48.92
2018-08-20T16:05:09.009Z,48.19
2018-08-20T16:07:36.935Z,48.71
2018-08-20T16:10:05.506Z,48.05
2018-08-20T16:12:33.145Z,48.42
2018-08-20T16:15:00.775Z,48.63
2018-08-20T16:17:28.397Z,49.00
2018-08-20T16:19:56.031Z,48.67
2018-08-20T16:22:23.670Z,48.95
2018-08-20T16:24:51.302Z,48.76
2018-08-20T16:27:18.964Z,48.49
2018-08-20T16:29:46.645Z,49.06
2018-08-20T16:32:14.262Z,49.04
2018-08-20T16:34:41.881Z,49.28
2018-08-20T16:37:09.509Z,49.33
2018-08-20T16:39:37.143Z,48.46
2018-08-20T16:42:04.781Z,48.49
2018-08-20T16:44:32.401Z,49.52
2018-08-20T16:47:00.025Z,48.90
2018-08-20T16:49:27.655Z,49.44
2018-08-20T16:51:55.308Z,48.63
2018-08-20T16:54:22.926Z,49.35
2018-08-20T16:56:50.537Z,48.56
2018-08-20T16:59:18.200Z,48.51
2018-08-20T17:01:45.998Z,49.20
2018-08-20T17:04:23.396Z,48.81
2018-08-20T17:06:51.032Z,48.23
2018-08-20T17:09:18.693Z,48.12
2018-08-20T17:11:46.327Z,47.48
2018-08-20T17:14:13.997Z,48.23
2018-08-20T17:16:41.609Z,48.11
2018-08-20T17:19:09.241Z,47.60
2018-08-20T17:21:36.874Z,47.85
2018-08-20T17:24:04.550Z,48.53
2018-08-20T17:26:32.185Z,48.98
2018-08-20T17:29:06.986Z,48.49
2018-08-20T17:31:34.626Z,48.50
2018-08-20T17:34:02.371Z,48.28
2018-08-20T17:36:29.997Z,48.52
2018-08-20T17:38:57.845Z,48.18
2018-08-20T17:41:25.481Z,48.62
2018-08-20T17:43:53.101Z,49.09
2018-08-20T17:46:20.729Z,48.52
2018-08-20T17:48:48.376Z,48.62
2018-08-20T17:51:16.007Z,49.10
2018-08-20T17:53:49.161Z,48.62
2018-08-20T17:56:16.887Z,48.90
2018-08-20T17:58:44.517Z,48.53
2018-08-20T18:01:12.159Z,48.76
2018-08-20T18:03:40.144Z,48.47
2018-08-20T18:06:08.960Z,48.77
2018-08-20T18:08:36.655Z,48.40
2018-08-20T18:11:05.006Z,48.55
2018-08-20T18:13:35.989Z,49.32
2018-08-20T18:16:06.920Z,48.48
2018-08-20T18:18:35.041Z,49.14
2018-08-20T18:21:02.660Z,49.24
2018-08-20T18:23:31.922Z,48.43
2018-08-20T18:25:59.545Z,48.53
2018-08-20T18:28:27.365Z,49.25
2018-08-20T18:31:05.261Z,49.28
2018-08-20T18:33:33.462Z,49.57
2018-08-20T18:36:12.408Z,49.34
2018-08-20T18:38:50.210Z,48.58
2018-08-20T18:41:18.537Z,48.69
2018-08-20T18:43:46.197Z,49.15
2018-08-20T18:46:13.832Z,49.47
2018-08-20T18:48:41.920Z,48.62
2018-08-20T18:51:13.861Z,48.46
2018-08-20T18:53:41.794Z,44.82
2018-08-20T18:56:14.610Z,42.41
2018-08-20T18:58:43.026Z,41.50
2018-08-20T19:01:11.078Z,41.73
2018-08-20T19:03:48.305Z,41.38
2018-08-20T19:06:16.644Z,40.80
2018-08-20T19:08:44.338Z,40.30
2018-08-20T19:11:12.589Z,40.83
2018-08-20T19:13:40.664Z,41.04
2018-08-20T19:16:13.949Z,40.73
2018-08-20T19:18:41.618Z,41.09
2018-08-20T19:21:13.503Z,40.95
2018-08-20T19:23:41.181Z,42.02
2018-08-20T19:26:08.797Z,42.17
2018-08-20T19:28:36.409Z,41.56
2018-08-20T19:31:04.033Z,41.91
2018-08-20T19:33:32.397Z,42.71
2018-08-20T19:36:00.399Z,42.02
2018-08-20T19:38:28.018Z,42.38
2018-08-20T19:41:14.685Z,43.11
2018-08-20T19:43:48.409Z,43.27
2018-08-20T19:46:24.165Z,42.93
2018-08-20T19:48:56.286Z,43.34
2018-08-20T19:51:23.920Z,42.64
2018-08-20T19:53:51.706Z,42.96
2018-08-20T19:56:19.330Z,43.76
2018-08-20T19:58:46.954Z,43.44
2018-08-20T20:01:15.432Z,43.40
2018-08-20T20:03:44.690Z,43.55
2018-08-20T20:06:12.677Z,44.14
2018-08-20T20:08:40.296Z,44.20
2018-08-20T20:11:11.337Z,44.03
2018-08-20T20:13:39.131Z,43.21
2018-08-20T20:16:06.854Z,43.55
2018-08-20T20:18:34.610Z,44.17
2018-08-20T20:21:02.445Z,43.02
2018-08-20T20:23:30.129Z,43.94
2018-08-20T20:25:57.884Z,44.06
2018-08-20T20:28:25.634Z,43.59
2018-08-20T20:30:53.361Z,44.29
2018-08-20T20:33:21.129Z,44.10
2018-08-20T20:35:48.845Z,44.33
2018-08-20T20:38:16.549Z,44.40
2018-08-20T20:40:44.198Z,43.73
2018-08-20T20:43:11.849Z,44.33
2018-08-20T20:45:39.494Z,44.59
2018-08-20T20:48:07.140Z,43.88
2018-08-20T20:50:34.899Z,44.08
2018-08-20T20:53:02.590Z,43.85
2018-08-20T20:55:30.261Z,44.01
2018-08-20T20:57:57.932Z,45.19
2018-08-20T21:00:25.651Z,44.84
2018-08-20T21:02:57.612Z,45.21
2018-08-20T21:05:25.340Z,45.25
2018-08-20T21:07:53.044Z,45.83
2018-08-20T21:10:20.746Z,45.05
2018-08-20T21:12:48.417Z,45.74
2018-08-20T21:15:16.095Z,45.68
2018-08-20T21:17:44.573Z,45.84
2018-08-20T21:20:12.438Z,45.32
2018-08-20T21:22:40.137Z,45.19
2018-08-20T21:25:09.152Z,45.39
2018-08-20T21:27:36.889Z,46.08
2018-08-20T21:30:04.588Z,46.36
2018-08-20T21:32:32.342Z,45.79
2018-08-20T21:35:00.101Z,47.12
2018-08-20T21:37:27.789Z,46.20
2018-08-20T21:39:55.581Z,47.25
2018-08-20T21:42:28.110Z,47.40
2018-08-20T21:44:56.093Z,47.51
2018-08-20T21:47:27.024Z,47.60
2018-08-20T21:49:54.770Z,48.80
2018-08-20T21:52:22.672Z,48.59
2018-08-20T21:54:50.381Z,47.28
2018-08-20T21:57:18.222Z,47.91
2018-08-20T22:00:17.580Z,48.61
2018-08-20T22:03:02.817Z,47.66
2018-08-20T22:05:30.794Z,48.23
2018-08-20T22:07:59.611Z,47.63
2018-08-20T22:10:28.694Z,47.52
2018-08-20T22:12:56.632Z,47.43
2018-08-20T22:15:24.414Z,47.97
2018-08-20T22:17:52.197Z,48.26
2018-08-20T22:20:20.264Z,47.62
2018-08-20T22:22:48.222Z,47.72
2018-08-20T22:25:16.617Z,48.21
2018-08-20T22:27:49.583Z,49.07
2018-08-20T22:30:17.845Z,48.96
2018-08-20T22:32:45.995Z,49.28
2018-08-20T22:35:19.025Z,48.52
2018-08-20T22:37:49.190Z,49.55
2018-08-20T22:40:18.710Z,50.02
2018-08-20T22:42:47.064Z,49.78
2018-08-20T22:45:15.970Z,49.13
2018-08-20T22:47:44.407Z,49.75
2018-08-20T22:50:12.262Z,49.92
2018-08-20T22:52:42.461Z,48.99
2018-08-20T22:55:10.913Z,48.69
2018-08-20T22:57:39.339Z,48.85
2018-08-20T23:00:13.620Z,48.63
2018-08-20T23:02:41.539Z,49.54
2018-08-20T23:05:13.453Z,49.50
2018-08-20T23:07:41.547Z,49.96
2018-08-20T23:10:09.436Z,49.47
2018-08-20T23:12:40.642Z,51.00
2018-08-20T23:15:08.809Z,51.06
2018-08-20T23:17:37.098Z,49.97
2018-08-20T23:20:06.265Z,51.02
2018-08-20T23:22:34.285Z,50.12
2018-08-20T23:25:02.193Z,50.73
2018-08-20T23:27:39.187Z,49.92
2018-08-20T23:30:07.847Z,49.74
2018-08-20T23:32:35.546Z,49.79
2018-08-20T23:35:03.472Z,49.60
2018-08-20T23:37:31.511Z,50.51
2018-08-20T23:39:59.541Z,50.24
2018-08-20T23:42:27.622Z,49.55
2018-08-20T23:44:55.940Z,51.48
2018-08-20T23:47:23.702Z,50.39
2018-08-20T23:49:51.549Z,50.33
2018-08-20T23:52:19.315Z,52.22
2018-08-20T23:54:47.068Z,52.67
2018-08-20T23:57:14.845Z,51.33
2018-08-20T23:59:42.805Z,50.69
